sensor_id;sensor_type;location;lat;lon;timestamp;P1;durP1;ratioP1;P2;durP2;ratioP2
22768;SDS011;13001;51.968;5.918;2023-01-31T00:02:18;236.63;;;219.83;;
22768;SDS011;13001;51.968;5.918;2023-01-31T00:04:45;226.37;;;210.10;;
22768;SDS011;13001;51.968;5.918;2023-01-31T00:07:13;240.30;;;223.03;;
22768;SDS011;13001;51.968;5.918;2023-01-31T00:09:40;559.83;;;517.67;;
22768;SDS011;13001;51.968;5.918;2023-01-31T00:12:09;231.77;;;214.87;;
22768;SDS011;13001;51.968;5.918;2023-01-31T00:14:36;621.50;;;575.00;;
22768;SDS011;13001;51.968;5.918;2023-01-31T00:17:03;666.93;;;617.27;;
22768;SDS011;13001;51.968;5.918;2023-01-31T00:19:31;239.00;;;221.37;;
22768;SDS011;13001;51.968;5.918;2023-01-31T00:21:58;239.50;;;221.80;;
22768;SDS011;13001;51.968;5.918;2023-01-31T00:24:25;242.43;;;225.13;;
22768;SDS011;13001;51.968;5.918;2023-01-31T00:26:52;663.23;;;612.53;;
22768;SDS011;13001;51.968;5.918;2023-01-31T00:29:22;639.03;;;590.93;;
22768;SDS011;13001;51.968;5.918;2023-01-31T00:31:50;673.53;;;622.17;;
22768;SDS011;13001;51.968;5.918;2023-01-31T00:34:17;633.10;;;585.33;;
22768;SDS011;13001;51.968;5.918;2023-01-31T00:36:44;657.20;;;607.57;;
22768;SDS011;13001;51.968;5.918;2023-01-31T00:39:12;680.00;;;628.07;;
22768;SDS011;13001;51.968;5.918;2023-01-31T00:41:39;677.50;;;626.17;;
22768;SDS011;13001;51.968;5.918;2023-01-31T00:44:06;636.80;;;589.27;;
22768;SDS011;13001;51.968;5.918;2023-01-31T00:46:33;634.67;;;587.67;;
22768;SDS011;13001;51.968;5.918;2023-01-31T00:49:01;540.57;;;501.00;;
22768;SDS011;13001;51.968;5.918;2023-01-31T00:51:28;631.20;;;585.27;;
22768;SDS011;13001;51.968;5.918;2023-01-31T00:53:55;672.07;;;622.33;;
22768;SDS011;13001;51.968;5.918;2023-01-31T00:56:23;669.50;;;621.03;;
22768;SDS011;13001;51.968;5.918;2023-01-31T00:58:51;587.40;;;545.40;;
22768;SDS011;13001;51.968;5.918;2023-01-31T01:01:22;599.50;;;556.50;;
22768;SDS011;13001;51.968;5.918;2023-01-31T01:03:47;644.57;;;598.63;;
22768;SDS011;13001;51.968;5.918;2023-01-31T01:06:14;605.10;;;562.33;;
22768;SDS011;13001;51.968;5.918;2023-01-31T01:08:42;611.07;;;567.77;;
22768;SDS011;13001;51.968;5.918;2023-01-31T01:11:13;609.07;;;566.03;;
22768;SDS011;13001;51.968;5.918;2023-01-31T01:13:41;608.13;;;565.23;;
22768;SDS011;13001;51.968;5.918;2023-01-31T01:16:12;585.67;;;544.40;;
22768;SDS011;13001;51.968;5.918;2023-01-31T01:18:40;662.47;;;614.70;;
22768;SDS011;13001;51.968;5.918;2023-01-31T01:21:12;624.00;;;579.70;;
22768;SDS011;13001;51.968;5.918;2023-01-31T01:23:39;599.77;;;557.20;;
22768;SDS011;13001;51.968;5.918;2023-01-31T01:26:13;618.93;;;574.43;;
22768;SDS011;13001;51.968;5.918;2023-01-31T01:28:41;664.80;;;617.03;;
22768;SDS011;13001;51.968;5.918;2023-01-31T01:31:09;630.83;;;585.10;;
22768;SDS011;13001;51.968;5.918;2023-01-31T01:33:36;652.60;;;604.43;;
22768;SDS011;13001;51.968;5.918;2023-01-31T01:36:05;673.53;;;624.13;;
22768;SDS011;13001;51.968;5.918;2023-01-31T01:38:36;667.37;;;618.20;;
22768;SDS011;13001;51.968;5.918;2023-01-31T01:41:03;628.90;;;583.03;;
22768;SDS011;13001;51.968;5.918;2023-01-31T01:43:44;672.93;;;622.77;;
22768;SDS011;13001;51.968;5.918;2023-01-31T01:46:13;649.07;;;600.70;;
22768;SDS011;13001;51.968;5.918;2023-01-31T01:48:41;653.73;;;604.20;;
22768;SDS011;13001;51.968;5.918;2023-01-31T01:51:09;664.73;;;613.87;;
22768;SDS011;13001;51.968;5.918;2023-01-31T01:53:37;676.77;;;624.53;;
22768;SDS011;13001;51.968;5.918;2023-01-31T01:56:07;635.67;;;587.97;;
22768;SDS011;13001;51.968;5.918;2023-01-31T01:58:38;628.80;;;581.17;;
22768;SDS011;13001;51.968;5.918;2023-01-31T02:01:06;644.13;;;595.13;;
22768;SDS011;13001;51.968;5.918;2023-01-31T02:03:34;635.30;;;586.70;;
22768;SDS011;13001;51.968;5.918;2023-01-31T02:06:02;648.03;;;598.87;;
22768;SDS011;13001;51.968;5.918;2023-01-31T02:08:31;671.27;;;620.30;;
22768;SDS011;13001;51.968;5.918;2023-01-31T02:11:05;659.87;;;609.33;;
22768;SDS011;13001;51.968;5.918;2023-01-31T02:13:31;639.17;;;590.27;;
22768;SDS011;13001;51.968;5.918;2023-01-31T02:15:58;664.33;;;612.80;;
22768;SDS011;13001;51.968;5.918;2023-01-31T02:18:25;643.10;;;593.00;;
22768;SDS011;13001;51.968;5.918;2023-01-31T02:29:05;598.93;;;553.00;;
22768;SDS011;13001;51.968;5.918;2023-01-31T02:31:40;598.93;;;553.33;;
22768;SDS011;13001;51.968;5.918;2023-01-31T02:34:15;620.20;;;572.80;;
22768;SDS011;13001;51.968;5.918;2023-01-31T02:44:51;512.50;;;473.70;;
22768;SDS011;13001;51.968;5.918;2023-01-31T02:47:32;520.60;;;481.50;;
22768;SDS011;13001;51.968;5.918;2023-01-31T02:52:49;476.23;;;441.30;;
22768;SDS011;13001;51.968;5.918;2023-01-31T02:58:04;553.47;;;511.47;;
22768;SDS011;13001;51.968;5.918;2023-01-31T03:00:33;513.50;;;476.23;;
22768;SDS011;13001;51.968;5.918;2023-01-31T03:03:11;451.80;;;419.83;;
22768;SDS011;13001;51.968;5.918;2023-01-31T03:05:33;471.37;;;437.03;;
22768;SDS011;13001;51.968;5.918;2023-01-31T03:08:01;430.30;;;400.30;;
22768;SDS011;13001;51.968;5.918;2023-01-31T03:10:37;443.63;;;411.43;;
22768;SDS011;13001;51.968;5.918;2023-01-31T03:13:08;482.50;;;448.43;;
22768;SDS011;13001;51.968;5.918;2023-01-31T03:15:39;426.10;;;396.90;;
22768;SDS011;13001;51.968;5.918;2023-01-31T03:18:24;400.10;;;372.40;;
22768;SDS011;13001;51.968;5.918;2023-01-31T03:20:52;428.13;;;397.90;;
22768;SDS011;13001;51.968;5.918;2023-01-31T03:23:26;436.47;;;405.30;;
22768;SDS011;13001;51.968;5.918;2023-01-31T03:25:50;405.97;;;378.17;;
22768;SDS011;13001;51.968;5.918;2023-01-31T03:28:19;418.50;;;388.97;;
22768;SDS011;13001;51.968;5.918;2023-01-31T03:30:47;415.13;;;385.70;;
22768;SDS011;13001;51.968;5.918;2023-01-31T03:33:20;406.33;;;378.60;;
22768;SDS011;13001;51.968;5.918;2023-01-31T03:35:46;392.57;;;364.33;;
22768;SDS011;13001;51.968;5.918;2023-01-31T03:38:17;355.03;;;330.83;;
22768;SDS011;13001;51.968;5.918;2023-01-31T03:41:05;370.17;;;344.23;;
22768;SDS011;13001;51.968;5.918;2023-01-31T03:43:21;380.33;;;354.43;;
22768;SDS011;13001;51.968;5.918;2023-01-31T03:45:50;376.80;;;350.83;;
22768;SDS011;13001;51.968;5.918;2023-01-31T03:48:14;409.30;;;381.03;;
22768;SDS011;13001;51.968;5.918;2023-01-31T03:50:46;339.10;;;315.90;;
22768;SDS011;13001;51.968;5.918;2023-01-31T03:53:17;407.13;;;378.60;;
22768;SDS011;13001;51.968;5.918;2023-01-31T03:55:51;378.40;;;351.80;;
22768;SDS011;13001;51.968;5.918;2023-01-31T03:58:19;374.53;;;348.63;;
22768;SDS011;13001;51.968;5.918;2023-01-31T04:00:48;354.50;;;329.87;;
22768;SDS011;13001;51.968;5.918;2023-01-31T04:04:00;356.87;;;333.40;;
22768;SDS011;13001;51.968;5.918;2023-01-31T04:05:47;349.63;;;325.30;;
22768;SDS011;13001;51.968;5.918;2023-01-31T04:08:15;293.00;;;273.10;;
22768;SDS011;13001;51.968;5.918;2023-01-31T04:10:42;204.17;;;190.30;;
22768;SDS011;13001;51.968;5.918;2023-01-31T04:13:09;253.43;;;235.73;;
22768;SDS011;13001;51.968;5.918;2023-01-31T04:15:37;281.97;;;262.43;;
22768;SDS011;13001;51.968;5.918;2023-01-31T04:18:04;338.47;;;315.93;;
22768;SDS011;13001;51.968;5.918;2023-01-31T04:20:31;320.07;;;297.97;;
22768;SDS011;13001;51.968;5.918;2023-01-31T04:22:58;295.27;;;274.43;;
22768;SDS011;13001;51.968;5.918;2023-01-31T04:25:26;373.67;;;348.30;;
22768;SDS011;13001;51.968;5.918;2023-01-31T04:27:53;381.43;;;354.70;;
22768;SDS011;13001;51.968;5.918;2023-01-31T04:30:20;318.37;;;296.27;;
22768;SDS011;13001;51.968;5.918;2023-01-31T04:32:48;388.83;;;362.00;;
22768;SDS011;13001;51.968;5.918;2023-01-31T04:35:15;339.70;;;315.60;;
22768;SDS011;13001;51.968;5.918;2023-01-31T04:37:42;337.80;;;314.70;;
22768;SDS011;13001;51.968;5.918;2023-01-31T04:40:10;394.70;;;366.60;;
22768;SDS011;13001;51.968;5.918;2023-01-31T04:42:39;390.03;;;363.30;;
22768;SDS011;13001;51.968;5.918;2023-01-31T04:45:06;356.77;;;330.97;;
22768;SDS011;13001;51.968;5.918;2023-01-31T04:47:34;312.43;;;291.70;;
22768;SDS011;13001;51.968;5.918;2023-01-31T04:50:01;324.60;;;302.30;;
22768;SDS011;13001;51.968;5.918;2023-01-31T04:52:28;307.47;;;286.13;;
22768;SDS011;13001;51.968;5.918;2023-01-31T04:54:55;272.47;;;253.97;;
22768;SDS011;13001;51.968;5.918;2023-01-31T04:57:23;291.60;;;271.33;;
22768;SDS011;13001;51.968;5.918;2023-01-31T04:59:50;278.53;;;259.80;;
22768;SDS011;13001;51.968;5.918;2023-01-31T05:02:18;221.23;;;206.50;;
22768;SDS011;13001;51.968;5.918;2023-01-31T05:04:45;230.77;;;214.80;;
22768;SDS011;13001;51.968;5.918;2023-01-31T05:07:12;342.23;;;319.30;;
22768;SDS011;13001;51.968;5.918;2023-01-31T05:09:40;278.53;;;259.33;;
22768;SDS011;13001;51.968;5.918;2023-01-31T05:12:09;315.03;;;293.83;;
22768;SDS011;13001;51.968;5.918;2023-01-31T05:14:36;283.63;;;263.40;;
22768;SDS011;13001;51.968;5.918;2023-01-31T05:17:03;343.23;;;318.53;;
22768;SDS011;13001;51.968;5.918;2023-01-31T05:19:31;339.80;;;316.10;;
22768;SDS011;13001;51.968;5.918;2023-01-31T05:21:58;334.87;;;310.43;;
22768;SDS011;13001;51.968;5.918;2023-01-31T05:24:26;352.13;;;326.90;;
22768;SDS011;13001;51.968;5.918;2023-01-31T05:26:54;331.03;;;307.93;;
22768;SDS011;13001;51.968;5.918;2023-01-31T05:29:25;330.30;;;308.07;;
22768;SDS011;13001;51.968;5.918;2023-01-31T05:31:53;294.20;;;273.97;;
22768;SDS011;13001;51.968;5.918;2023-01-31T05:34:21;284.83;;;265.80;;
22768;SDS011;13001;51.968;5.918;2023-01-31T05:36:50;233.63;;;217.43;;
22768;SDS011;13001;51.968;5.918;2023-01-31T05:39:18;286.27;;;266.47;;
22768;SDS011;13001;51.968;5.918;2023-01-31T05:41:45;281.07;;;261.37;;
22768;SDS011;13001;51.968;5.918;2023-01-31T05:44:12;269.73;;;251.37;;
22768;SDS011;13001;51.968;5.918;2023-01-31T05:46:41;281.73;;;262.97;;
22768;SDS011;13001;51.968;5.918;2023-01-31T05:49:09;243.23;;;226.53;;
22768;SDS011;13001;51.968;5.918;2023-01-31T05:51:36;268.90;;;249.90;;
22768;SDS011;13001;51.968;5.918;2023-01-31T05:54:03;277.33;;;258.30;;
22768;SDS011;13001;51.968;5.918;2023-01-31T05:56:31;264.43;;;245.43;;
22768;SDS011;13001;51.968;5.918;2023-01-31T05:58:58;297.03;;;276.00;;
22768;SDS011;13001;51.968;5.918;2023-01-31T06:01:27;338.73;;;316.07;;
22768;SDS011;13001;51.968;5.918;2023-01-31T06:03:55;268.30;;;249.47;;
22768;SDS011;13001;51.968;5.918;2023-01-31T06:06:22;226.30;;;210.13;;
22768;SDS011;13001;51.968;5.918;2023-01-31T06:08:49;252.37;;;235.13;;
22768;SDS011;13001;51.968;5.918;2023-01-31T06:11:16;311.93;;;290.90;;
22768;SDS011;13001;51.968;5.918;2023-01-31T06:13:44;322.97;;;300.20;;
22768;SDS011;13001;51.968;5.918;2023-01-31T06:16:11;321.33;;;298.90;;
22768;SDS011;13001;51.968;5.918;2023-01-31T06:18:38;342.87;;;318.37;;
22768;SDS011;13001;51.968;5.918;2023-01-31T06:21:06;326.47;;;302.80;;
22768;SDS011;13001;51.968;5.918;2023-01-31T06:23:33;303.63;;;282.40;;
22768;SDS011;13001;51.968;5.918;2023-01-31T06:26:00;323.47;;;301.20;;
22768;SDS011;13001;51.968;5.918;2023-01-31T06:28:28;271.23;;;251.87;;
22768;SDS011;13001;51.968;5.918;2023-01-31T06:30:55;317.47;;;295.10;;
22768;SDS011;13001;51.968;5.918;2023-01-31T06:33:22;253.67;;;236.93;;
22768;SDS011;13001;51.968;5.918;2023-01-31T06:35:49;256.67;;;238.43;;
22768;SDS011;13001;51.968;5.918;2023-01-31T06:38:17;273.33;;;254.37;;
22768;SDS011;13001;51.968;5.918;2023-01-31T06:40:44;249.63;;;232.30;;
22768;SDS011;13001;51.968;5.918;2023-01-31T06:43:11;201.00;;;187.40;;
22768;SDS011;13001;51.968;5.918;2023-01-31T06:45:39;283.70;;;265.40;;
22768;SDS011;13001;51.968;5.918;2023-01-31T06:48:07;258.67;;;240.67;;
22768;SDS011;13001;51.968;5.918;2023-01-31T06:50:34;239.63;;;223.07;;
22768;SDS011;13001;51.968;5.918;2023-01-31T06:53:02;300.30;;;280.87;;
22768;SDS011;13001;51.968;5.918;2023-01-31T06:55:29;280.03;;;260.47;;
22768;SDS011;13001;51.968;5.918;2023-01-31T06:57:56;287.40;;;268.17;;
22768;SDS011;13001;51.968;5.918;2023-01-31T07:00:24;270.17;;;251.77;;
22768;SDS011;13001;51.968;5.918;2023-01-31T07:02:51;322.37;;;300.27;;
22768;SDS011;13001;51.968;5.918;2023-01-31T07:05:19;206.93;;;193.07;;
22768;SDS011;13001;51.968;5.918;2023-01-31T07:07:46;275.10;;;257.10;;
22768;SDS011;13001;51.968;5.918;2023-01-31T07:10:15;239.63;;;223.53;;
22768;SDS011;13001;51.968;5.918;2023-01-31T07:12:43;324.53;;;301.60;;
22768;SDS011;13001;51.968;5.918;2023-01-31T07:15:10;240.23;;;224.70;;
22768;SDS011;13001;51.968;5.918;2023-01-31T07:17:38;230.70;;;213.97;;
22768;SDS011;13001;51.968;5.918;2023-01-31T07:20:07;212.33;;;197.97;;
22768;SDS011;13001;51.968;5.918;2023-01-31T07:22:34;215.47;;;201.00;;
22768;SDS011;13001;51.968;5.918;2023-01-31T07:25:01;173.23;;;161.27;;
22768;SDS011;13001;51.968;5.918;2023-01-31T07:27:29;255.23;;;238.07;;
22768;SDS011;13001;51.968;5.918;2023-01-31T07:29:56;265.07;;;246.77;;
22768;SDS011;13001;51.968;5.918;2023-01-31T07:32:27;210.60;;;196.23;;
22768;SDS011;13001;51.968;5.918;2023-01-31T07:34:52;281.73;;;262.90;;
22768;SDS011;13001;51.968;5.918;2023-01-31T07:37:19;218.17;;;203.80;;
22768;SDS011;13001;51.968;5.918;2023-01-31T07:39:47;178.77;;;167.07;;
22768;SDS011;13001;51.968;5.918;2023-01-31T07:42:14;226.43;;;210.80;;
22768;SDS011;13001;51.968;5.918;2023-01-31T07:44:41;264.53;;;246.83;;
22768;SDS011;13001;51.968;5.918;2023-01-31T07:47:08;242.93;;;226.50;;
22768;SDS011;13001;51.968;5.918;2023-01-31T07:49:36;290.03;;;270.37;;
22768;SDS011;13001;51.968;5.918;2023-01-31T07:52:03;304.23;;;283.77;;
22768;SDS011;13001;51.968;5.918;2023-01-31T07:54:30;140.53;;;131.07;;
22768;SDS011;13001;51.968;5.918;2023-01-31T07:56:58;264.17;;;246.37;;
22768;SDS011;13001;51.968;5.918;2023-01-31T07:59:25;223.63;;;207.97;;
22768;SDS011;13001;51.968;5.918;2023-01-31T08:01:52;181.40;;;168.70;;
22768;SDS011;13001;51.968;5.918;2023-01-31T08:04:24;280.23;;;260.50;;
22768;SDS011;13001;51.968;5.918;2023-01-31T08:06:52;226.97;;;211.60;;
22768;SDS011;13001;51.968;5.918;2023-01-31T08:09:20;229.70;;;214.00;;
22768;SDS011;13001;51.968;5.918;2023-01-31T08:11:48;233.83;;;217.80;;
22768;SDS011;13001;51.968;5.918;2023-01-31T08:14:16;199.87;;;185.87;;
22768;SDS011;13001;51.968;5.918;2023-01-31T08:16:45;204.63;;;190.27;;
22768;SDS011;13001;51.968;5.918;2023-01-31T08:19:12;244.77;;;227.63;;
22768;SDS011;13001;51.968;5.918;2023-01-31T08:21:39;270.23;;;250.73;;
22768;SDS011;13001;51.968;5.918;2023-01-31T08:24:07;241.93;;;224.40;;
22768;SDS011;13001;51.968;5.918;2023-01-31T08:26:34;270.63;;;250.73;;
22768;SDS011;13001;51.968;5.918;2023-01-31T08:29:01;232.20;;;215.07;;
22768;SDS011;13001;51.968;5.918;2023-01-31T08:31:29;249.67;;;231.77;;
22768;SDS011;13001;51.968;5.918;2023-01-31T08:33:56;272.33;;;252.60;;
22768;SDS011;13001;51.968;5.918;2023-01-31T08:36:24;291.23;;;270.57;;
22768;SDS011;13001;51.968;5.918;2023-01-31T08:38:52;274.70;;;255.00;;
22768;SDS011;13001;51.968;5.918;2023-01-31T08:41:20;282.57;;;262.20;;
22768;SDS011;13001;51.968;5.918;2023-01-31T08:43:48;303.70;;;282.03;;
22768;SDS011;13001;51.968;5.918;2023-01-31T08:46:15;247.10;;;229.67;;
22768;SDS011;13001;51.968;5.918;2023-01-31T08:48:43;277.53;;;258.20;;
22768;SDS011;13001;51.968;5.918;2023-01-31T08:51:11;355.23;;;329.73;;
22768;SDS011;13001;51.968;5.918;2023-01-31T08:53:39;288.43;;;267.20;;
22768;SDS011;13001;51.968;5.918;2023-01-31T08:56:07;273.17;;;252.77;;
22768;SDS011;13001;51.968;5.918;2023-01-31T08:58:35;258.30;;;239.93;;
22768;SDS011;13001;51.968;5.918;2023-01-31T09:01:03;282.60;;;262.83;;
22768;SDS011;13001;51.968;5.918;2023-01-31T09:03:32;295.80;;;274.97;;
22768;SDS011;13001;51.968;5.918;2023-01-31T09:06:00;296.57;;;275.30;;
22768;SDS011;13001;51.968;5.918;2023-01-31T09:08:28;245.97;;;228.77;;
22768;SDS011;13001;51.968;5.918;2023-01-31T09:10:56;233.67;;;217.53;;
22768;SDS011;13001;51.968;5.918;2023-01-31T09:13:25;236.83;;;220.30;;
22768;SDS011;13001;51.968;5.918;2023-01-31T09:15:57;255.70;;;237.90;;
22768;SDS011;13001;51.968;5.918;2023-01-31T09:18:25;276.63;;;257.43;;
22768;SDS011;13001;51.968;5.918;2023-01-31T09:20:52;275.33;;;256.37;;
22768;SDS011;13001;51.968;5.918;2023-01-31T09:23:21;213.30;;;197.77;;
22768;SDS011;13001;51.968;5.918;2023-01-31T09:25:52;251.77;;;234.10;;
22768;SDS011;13001;51.968;5.918;2023-01-31T09:28:19;278.93;;;259.47;;
22768;SDS011;13001;51.968;5.918;2023-01-31T09:30:47;222.80;;;207.67;;
22768;SDS011;13001;51.968;5.918;2023-01-31T09:33:15;203.57;;;188.53;;
22768;SDS011;13001;51.968;5.918;2023-01-31T09:35:42;229.10;;;213.07;;
22768;SDS011;13001;51.968;5.918;2023-01-31T09:38:09;197.13;;;183.43;;
22768;SDS011;13001;51.968;5.918;2023-01-31T09:40:37;262.67;;;245.03;;
22768;SDS011;13001;51.968;5.918;2023-01-31T09:43:07;230.40;;;215.00;;
22768;SDS011;13001;51.968;5.918;2023-01-31T09:45:35;220.60;;;205.63;;
22768;SDS011;13001;51.968;5.918;2023-01-31T09:48:03;263.47;;;244.50;;
22768;SDS011;13001;51.968;5.918;2023-01-31T09:53:03;282.43;;;263.13;;
22768;SDS011;13001;51.968;5.918;2023-01-31T09:55:41;293.20;;;272.30;;
22768;SDS011;13001;51.968;5.918;2023-01-31T10:00:45;248.90;;;231.47;;
22768;SDS011;13001;51.968;5.918;2023-01-31T10:06:07;299.73;;;278.83;;
22768;SDS011;13001;51.968;5.918;2023-01-31T10:11:01;302.60;;;281.07;;
22768;SDS011;13001;51.968;5.918;2023-01-31T10:13:33;297.93;;;276.93;;
22768;SDS011;13001;51.968;5.918;2023-01-31T10:16:02;282.67;;;263.50;;
22768;SDS011;13001;51.968;5.918;2023-01-31T10:18:29;252.80;;;235.20;;
22768;SDS011;13001;51.968;5.918;2023-01-31T10:21:08;218.90;;;203.77;;
22768;SDS011;13001;51.968;5.918;2023-01-31T10:23:30;260.83;;;242.67;;
22768;SDS011;13001;51.968;5.918;2023-01-31T10:26:01;270.93;;;252.03;;
22768;SDS011;13001;51.968;5.918;2023-01-31T10:28:40;260.60;;;241.73;;
22768;SDS011;13001;51.968;5.918;2023-01-31T10:30:59;278.97;;;259.57;;
22768;SDS011;13001;51.968;5.918;2023-01-31T10:33:30;256.67;;;238.30;;
22768;SDS011;13001;51.968;5.918;2023-01-31T10:35:56;234.80;;;218.53;;
22768;SDS011;13001;51.968;5.918;2023-01-31T10:38:30;190.33;;;177.07;;
22768;SDS011;13001;51.968;5.918;2023-01-31T10:41:05;203.27;;;189.13;;
22768;SDS011;13001;51.968;5.918;2023-01-31T10:43:48;211.23;;;196.83;;
22768;SDS011;13001;51.968;5.918;2023-01-31T10:45:59;180.53;;;168.17;;
22768;SDS011;13001;51.968;5.918;2023-01-31T10:48:27;202.60;;;188.27;;
22768;SDS011;13001;51.968;5.918;2023-01-31T10:51:06;182.70;;;170.03;;
22768;SDS011;13001;51.968;5.918;2023-01-31T10:53:52;193.77;;;179.37;;
22768;SDS011;13001;51.968;5.918;2023-01-31T10:56:19;214.00;;;199.50;;
22768;SDS011;13001;51.968;5.918;2023-01-31T10:58:45;200.87;;;186.83;;
22768;SDS011;13001;51.968;5.918;2023-01-31T11:01:13;193.30;;;180.40;;
22768;SDS011;13001;51.968;5.918;2023-01-31T11:03:45;209.57;;;194.40;;
22768;SDS011;13001;51.968;5.918;2023-01-31T11:06:09;169.97;;;158.53;;
22768;SDS011;13001;51.968;5.918;2023-01-31T11:08:45;213.10;;;198.63;;
22768;SDS011;13001;51.968;5.918;2023-01-31T11:11:14;204.93;;;191.27;;
22768;SDS011;13001;51.968;5.918;2023-01-31T11:16:24;159.40;;;147.50;;
22768;SDS011;13001;51.968;5.918;2023-01-31T11:18:52;200.17;;;186.70;;
22768;SDS011;13001;51.968;5.918;2023-01-31T11:21:21;193.17;;;179.77;;
22768;SDS011;13001;51.968;5.918;2023-01-31T11:23:49;207.13;;;192.87;;
22768;SDS011;13001;51.968;5.918;2023-01-31T11:26:27;193.30;;;180.33;;
22768;SDS011;13001;51.968;5.918;2023-01-31T11:28:54;168.63;;;156.33;;
22768;SDS011;13001;51.968;5.918;2023-01-31T11:31:28;192.57;;;179.17;;
22768;SDS011;13001;51.968;5.918;2023-01-31T11:33:57;171.43;;;159.67;;
22768;SDS011;13001;51.968;5.918;2023-01-31T11:36:25;192.83;;;179.23;;
22768;SDS011;13001;51.968;5.918;2023-01-31T11:38:54;208.43;;;194.47;;
22768;SDS011;13001;51.968;5.918;2023-01-31T11:41:25;181.33;;;169.13;;
22768;SDS011;13001;51.968;5.918;2023-01-31T11:44:35;216.73;;;202.13;;
22768;SDS011;13001;51.968;5.918;2023-01-31T11:46:24;198.07;;;184.50;;
22768;SDS011;13001;51.968;5.918;2023-01-31T11:48:51;230.27;;;213.50;;
22768;SDS011;13001;51.968;5.918;2023-01-31T11:51:24;233.60;;;217.43;;
22768;SDS011;13001;51.968;5.918;2023-01-31T11:53:52;203.90;;;189.60;;
22768;SDS011;13001;51.968;5.918;2023-01-31T11:56:24;232.87;;;217.10;;
22768;SDS011;13001;51.968;5.918;2023-01-31T11:58:49;229.43;;;212.93;;
22768;SDS011;13001;51.968;5.918;2023-01-31T12:01:18;238.73;;;222.13;;
22768;SDS011;13001;51.968;5.918;2023-01-31T12:03:52;221.07;;;205.70;;
22768;SDS011;13001;51.968;5.918;2023-01-31T12:06:30;227.20;;;211.73;;
22768;SDS011;13001;51.968;5.918;2023-01-31T12:08:57;240.53;;;223.60;;
22768;SDS011;13001;51.968;5.918;2023-01-31T12:11:26;224.43;;;208.67;;
22768;SDS011;13001;51.968;5.918;2023-01-31T12:16:29;183.80;;;171.10;;
22768;SDS011;13001;51.968;5.918;2023-01-31T12:24:25;224.87;;;209.23;;
22768;SDS011;13001;51.968;5.918;2023-01-31T12:34:40;177.60;;;165.50;;
22768;SDS011;13001;51.968;5.918;2023-01-31T12:37:08;126.60;;;117.93;;
22768;SDS011;13001;51.968;5.918;2023-01-31T12:39:40;144.77;;;134.70;;
22768;SDS011;13001;51.968;5.918;2023-01-31T12:47:29;137.10;;;127.53;;
22768;SDS011;13001;51.968;5.918;2023-01-31T12:52:35;128.90;;;120.67;;
22768;SDS011;13001;51.968;5.918;2023-01-31T12:55:13;149.20;;;140.03;;
22768;SDS011;13001;51.968;5.918;2023-01-31T12:57:48;139.63;;;130.57;;
22768;SDS011;13001;51.968;5.918;2023-01-31T13:00:22;134.10;;;125.47;;
22768;SDS011;13001;51.968;5.918;2023-01-31T13:05:37;143.90;;;135.03;;
22768;SDS011;13001;51.968;5.918;2023-01-31T13:08:05;157.70;;;148.03;;
22768;SDS011;13001;51.968;5.918;2023-01-31T13:10:33;160.07;;;149.60;;
22768;SDS011;13001;51.968;5.918;2023-01-31T13:13:00;158.57;;;148.37;;
22768;SDS011;13001;51.968;5.918;2023-01-31T13:18:01;161.33;;;151.03;;
22768;SDS011;13001;51.968;5.918;2023-01-31T13:23:05;176.77;;;165.63;;
22768;SDS011;13001;51.968;5.918;2023-01-31T13:25:34;190.83;;;178.20;;
22768;SDS011;13001;51.968;5.918;2023-01-31T13:28:05;187.40;;;175.37;;
22768;SDS011;13001;51.968;5.918;2023-01-31T13:30:41;200.33;;;187.90;;
22768;SDS011;13001;51.968;5.918;2023-01-31T13:35:56;194.03;;;181.07;;
22768;SDS011;13001;51.968;5.918;2023-01-31T13:38:24;192.17;;;179.57;;
22768;SDS011;13001;51.968;5.918;2023-01-31T13:40:53;198.93;;;186.03;;
22768;SDS011;13001;51.968;5.918;2023-01-31T13:43:21;192.40;;;180.20;;
22768;SDS011;13001;51.968;5.918;2023-01-31T13:45:51;194.87;;;182.93;;
22768;SDS011;13001;51.968;5.918;2023-01-31T13:50:58;196.40;;;183.43;;
22768;SDS011;13001;51.968;5.918;2023-01-31T13:53:26;192.60;;;178.87;;
22768;SDS011;13001;51.968;5.918;2023-01-31T13:55:49;187.47;;;175.43;;
22768;SDS011;13001;51.968;5.918;2023-01-31T13:58:22;180.80;;;169.53;;
22768;SDS011;13001;51.968;5.918;2023-01-31T14:00:47;178.97;;;167.20;;
22768;SDS011;13001;51.968;5.918;2023-01-31T14:03:17;167.03;;;155.83;;
22768;SDS011;13001;51.968;5.918;2023-01-31T14:05:49;178.50;;;166.83;;
22768;SDS011;13001;51.968;5.918;2023-01-31T14:10:55;179.60;;;167.70;;
22768;SDS011;13001;51.968;5.918;2023-01-31T14:16:02;167.00;;;156.13;;
22768;SDS011;13001;51.968;5.918;2023-01-31T14:18:39;181.07;;;169.33;;
22768;SDS011;13001;51.968;5.918;2023-01-31T14:23:52;172.13;;;161.23;;
22768;SDS011;13001;51.968;5.918;2023-01-31T14:26:32;179.23;;;167.53;;
22768;SDS011;13001;51.968;5.918;2023-01-31T14:29:23;173.20;;;162.03;;
22768;SDS011;13001;51.968;5.918;2023-01-31T14:31:30;168.70;;;157.60;;
22768;SDS011;13001;51.968;5.918;2023-01-31T14:33:57;169.10;;;157.47;;
22768;SDS011;13001;51.968;5.918;2023-01-31T14:36:33;168.13;;;156.80;;
22768;SDS011;13001;51.968;5.918;2023-01-31T14:39:02;166.33;;;155.13;;
22768;SDS011;13001;51.968;5.918;2023-01-31T14:44:08;167.40;;;155.87;;
22768;SDS011;13001;51.968;5.918;2023-01-31T14:49:32;165.33;;;154.20;;
22768;SDS011;13001;51.968;5.918;2023-01-31T14:52:12;167.47;;;156.07;;
22768;SDS011;13001;51.968;5.918;2023-01-31T14:57:27;156.03;;;145.20;;
22768;SDS011;13001;51.968;5.918;2023-01-31T15:00:04;148.47;;;138.03;;
22768;SDS011;13001;51.968;5.918;2023-01-31T15:05:05;149.23;;;139.23;;
22768;SDS011;13001;51.968;5.918;2023-01-31T15:07:32;147.30;;;137.87;;
22768;SDS011;13001;51.968;5.918;2023-01-31T15:10:00;142.33;;;132.90;;
22768;SDS011;13001;51.968;5.918;2023-01-31T15:17:56;150.60;;;140.53;;
22768;SDS011;13001;51.968;5.918;2023-01-31T15:20:28;147.87;;;138.03;;
22768;SDS011;13001;51.968;5.918;2023-01-31T15:22:54;160.00;;;148.90;;
22768;SDS011;13001;51.968;5.918;2023-01-31T15:27:54;201.70;;;187.97;;
22768;SDS011;13001;51.968;5.918;2023-01-31T15:30:22;177.83;;;165.63;;
22768;SDS011;13001;51.968;5.918;2023-01-31T15:33:01;207.20;;;192.67;;
22768;SDS011;13001;51.968;5.918;2023-01-31T15:35:33;210.63;;;196.57;;
22768;SDS011;13001;51.968;5.918;2023-01-31T15:38:04;247.67;;;230.93;;
22768;SDS011;13001;51.968;5.918;2023-01-31T15:40:32;240.53;;;224.67;;
22768;SDS011;13001;51.968;5.918;2023-01-31T15:43:21;277.70;;;258.23;;
22768;SDS011;13001;51.968;5.918;2023-01-31T15:45:29;276.97;;;258.10;;